sensor_id;sensor_type;location;lat;lon;timestamp;P1;durP1;ratioP1;P2;durP2;ratioP2
11305;SDS011;5708;50.660;6.778;2022-10-04T00:07:30;13.95;;;6.30;;
11305;SDS011;5708;50.660;6.778;2022-10-04T00:10:01;14.60;;;6.55;;
11305;SDS011;5708;50.660;6.778;2022-10-04T00:12:33;13.18;;;6.03;;
11305;SDS011;5708;50.660;6.778;2022-10-04T00:15:04;9.07;;;5.70;;
11305;SDS011;5708;50.660;6.778;2022-10-04T00:18:06;9.52;;;5.70;;
11305;SDS011;5708;50.660;6.778;2022-10-04T00:31:08;13.55;;;5.97;;
11305;SDS011;5708;50.660;6.778;2022-10-04T00:41:27;9.43;;;5.35;;
11305;SDS011;5708;50.660;6.778;2022-10-04T00:43:58;10.00;;;5.35;;
11305;SDS011;5708;50.660;6.778;2022-10-04T00:46:24;9.77;;;5.32;;
11305;SDS011;5708;50.660;6.778;2022-10-04T00:48:52;8.52;;;5.30;;
11305;SDS011;5708;50.660;6.778;2022-10-04T00:56:58;11.40;;;5.63;;
11305;SDS011;5708;50.660;6.778;2022-10-04T00:59:32;13.48;;;6.50;;
11305;SDS011;5708;50.660;6.778;2022-10-04T01:02:06;11.70;;;5.55;;
11305;SDS011;5708;50.660;6.778;2022-10-04T01:07:06;11.15;;;5.85;;
11305;SDS011;5708;50.660;6.778;2022-10-04T01:09:34;13.07;;;6.32;;
11305;SDS011;5708;50.660;6.778;2022-10-04T01:12:03;11.98;;;6.35;;
11305;SDS011;5708;50.660;6.778;2022-10-04T01:17:21;13.00;;;5.88;;
11305;SDS011;5708;50.660;6.778;2022-10-04T01:19:53;12.77;;;6.28;;
11305;SDS011;5708;50.660;6.778;2022-10-04T01:22:32;13.02;;;5.97;;
11305;SDS011;5708;50.660;6.778;2022-10-04T01:25:05;10.68;;;5.10;;
11305;SDS011;5708;50.660;6.778;2022-10-04T01:27:40;11.95;;;5.30;;
11305;SDS011;5708;50.660;6.778;2022-10-04T01:30:11;9.77;;;5.32;;
11305;SDS011;5708;50.660;6.778;2022-10-04T01:32:38;11.43;;;4.72;;
11305;SDS011;5708;50.660;6.778;2022-10-04T01:35:08;10.73;;;5.43;;
11305;SDS011;5708;50.660;6.778;2022-10-04T01:37:35;9.02;;;5.43;;
11305;SDS011;5708;50.660;6.778;2022-10-04T01:40:01;9.02;;;5.07;;
11305;SDS011;5708;50.660;6.778;2022-10-04T01:42:31;9.73;;;4.75;;
11305;SDS011;5708;50.660;6.778;2022-10-04T01:45:04;9.45;;;4.90;;
11305;SDS011;5708;50.660;6.778;2022-10-04T01:47:43;9.88;;;4.90;;
11305;SDS011;5708;50.660;6.778;2022-10-04T01:50:21;10.23;;;5.63;;
11305;SDS011;5708;50.660;6.778;2022-10-04T01:52:53;11.35;;;4.93;;
11305;SDS011;5708;50.660;6.778;2022-10-04T01:55:24;8.98;;;5.18;;
11305;SDS011;5708;50.660;6.778;2022-10-04T01:58:12;9.38;;;4.75;;
11305;SDS011;5708;50.660;6.778;2022-10-04T02:00:51;9.68;;;4.80;;
11305;SDS011;5708;50.660;6.778;2022-10-04T02:03:25;8.45;;;5.13;;
11305;SDS011;5708;50.660;6.778;2022-10-04T02:06:03;10.00;;;5.05;;
11305;SDS011;5708;50.660;6.778;2022-10-04T02:08:31;14.43;;;5.50;;
11305;SDS011;5708;50.660;6.778;2022-10-04T02:10:58;12.15;;;5.85;;
11305;SDS011;5708;50.660;6.778;2022-10-04T02:13:25;12.30;;;5.65;;
11305;SDS011;5708;50.660;6.778;2022-10-04T02:15:53;10.40;;;6.07;;
11305;SDS011;5708;50.660;6.778;2022-10-04T02:18:19;11.73;;;5.97;;
11305;SDS011;5708;50.660;6.778;2022-10-04T02:20:46;11.10;;;6.10;;
11305;SDS011;5708;50.660;6.778;2022-10-04T02:23:12;11.88;;;5.72;;
11305;SDS011;5708;50.660;6.778;2022-10-04T02:25:40;10.52;;;5.72;;
11305;SDS011;5708;50.660;6.778;2022-10-04T02:28:09;13.27;;;5.22;;
11305;SDS011;5708;50.660;6.778;2022-10-04T02:30:36;10.25;;;5.68;;
11305;SDS011;5708;50.660;6.778;2022-10-04T02:33:02;10.38;;;5.60;;
11305;SDS011;5708;50.660;6.778;2022-10-04T02:35:29;10.00;;;5.22;;
11305;SDS011;5708;50.660;6.778;2022-10-04T02:41:00;11.18;;;5.35;;
11305;SDS011;5708;50.660;6.778;2022-10-04T02:43:31;11.90;;;5.30;;
11305;SDS011;5708;50.660;6.778;2022-10-04T02:50:58;11.05;;;5.05;;
11305;SDS011;5708;50.660;6.778;2022-10-04T02:53:30;11.45;;;5.47;;
11305;SDS011;5708;50.660;6.778;2022-10-04T02:56:02;13.70;;;5.95;;
11305;SDS011;5708;50.660;6.778;2022-10-04T02:58:28;7.97;;;5.00;;
11305;SDS011;5708;50.660;6.778;2022-10-04T03:00:58;11.90;;;5.30;;
11305;SDS011;5708;50.660;6.778;2022-10-04T03:03:26;12.90;;;5.30;;
11305;SDS011;5708;50.660;6.778;2022-10-04T03:06:09;9.35;;;5.22;;
11305;SDS011;5708;50.660;6.778;2022-10-04T03:11:11;12.13;;;5.65;;
11305;SDS011;5708;50.660;6.778;2022-10-04T03:13:38;12.05;;;5.65;;
11305;SDS011;5708;50.660;6.778;2022-10-04T03:16:05;10.05;;;5.75;;
11305;SDS011;5708;50.660;6.778;2022-10-04T03:18:31;12.85;;;6.22;;
11305;SDS011;5708;50.660;6.778;2022-10-04T03:21:04;11.20;;;5.95;;
11305;SDS011;5708;50.660;6.778;2022-10-04T03:23:32;11.00;;;5.40;;
11305;SDS011;5708;50.660;6.778;2022-10-04T03:26:11;14.70;;;5.47;;
11305;SDS011;5708;50.660;6.778;2022-10-04T03:28:43;10.32;;;5.47;;
11305;SDS011;5708;50.660;6.778;2022-10-04T03:31:10;11.82;;;5.80;;
11305;SDS011;5708;50.660;6.778;2022-10-04T03:33:37;12.23;;;6.05;;
11305;SDS011;5708;50.660;6.778;2022-10-04T03:36:03;12.32;;;6.00;;
11305;SDS011;5708;50.660;6.778;2022-10-04T03:38:29;12.90;;;5.93;;
11305;SDS011;5708;50.660;6.778;2022-10-04T03:40:59;14.88;;;6.72;;
11305;SDS011;5708;50.660;6.778;2022-10-04T03:43:26;11.75;;;6.00;;
11305;SDS011;5708;50.660;6.778;2022-10-04T03:45:52;13.15;;;6.53;;
11305;SDS011;5708;50.660;6.778;2022-10-04T03:48:29;14.77;;;6.53;;
11305;SDS011;5708;50.660;6.778;2022-10-04T03:50:56;12.50;;;6.25;;
11305;SDS011;5708;50.660;6.778;2022-10-04T03:55:55;12.02;;;5.55;;
11305;SDS011;5708;50.660;6.778;2022-10-04T03:58:21;13.88;;;6.63;;
11305;SDS011;5708;50.660;6.778;2022-10-04T04:00:59;14.55;;;6.32;;
11305;SDS011;5708;50.660;6.778;2022-10-04T04:03:29;16.42;;;6.10;;
11305;SDS011;5708;50.660;6.778;2022-10-04T04:06:00;14.80;;;5.70;;
11305;SDS011;5708;50.660;6.778;2022-10-04T04:08:33;17.55;;;6.10;;
11305;SDS011;5708;50.660;6.778;2022-10-04T04:11:02;14.25;;;6.18;;
11305;SDS011;5708;50.660;6.778;2022-10-04T04:16:07;14.27;;;6.18;;
11305;SDS011;5708;50.660;6.778;2022-10-04T04:18:34;11.20;;;5.93;;
11305;SDS011;5708;50.660;6.778;2022-10-04T04:21:01;13.50;;;6.10;;
11305;SDS011;5708;50.660;6.778;2022-10-04T04:23:31;12.85;;;5.85;;
11305;SDS011;5708;50.660;6.778;2022-10-04T04:28:44;15.65;;;6.03;;
11305;SDS011;5708;50.660;6.778;2022-10-04T04:34:04;11.43;;;5.93;;
11305;SDS011;5708;50.660;6.778;2022-10-04T04:36:38;11.45;;;5.82;;
11305;SDS011;5708;50.660;6.778;2022-10-04T04:41:52;12.10;;;5.65;;
11305;SDS011;5708;50.660;6.778;2022-10-04T04:44:17;9.55;;;5.20;;
11305;SDS011;5708;50.660;6.778;2022-10-04T04:46:44;13.70;;;5.47;;
11305;SDS011;5708;50.660;6.778;2022-10-04T04:49:10;11.73;;;5.78;;
11305;SDS011;5708;50.660;6.778;2022-10-04T04:51:36;13.82;;;6.10;;
11305;SDS011;5708;50.660;6.778;2022-10-04T04:54:05;14.35;;;5.97;;
11305;SDS011;5708;50.660;6.778;2022-10-04T04:56:30;13.82;;;5.45;;
11305;SDS011;5708;50.660;6.778;2022-10-04T04:58:57;11.52;;;5.63;;
11305;SDS011;5708;50.660;6.778;2022-10-04T05:01:26;11.25;;;5.95;;
11305;SDS011;5708;50.660;6.778;2022-10-04T05:06:37;12.80;;;5.68;;
11305;SDS011;5708;50.660;6.778;2022-10-04T05:09:30;11.88;;;6.18;;
11305;SDS011;5708;50.660;6.778;2022-10-04T05:12:02;11.80;;;5.68;;
11305;SDS011;5708;50.660;6.778;2022-10-04T05:14:32;11.00;;;5.70;;
11305;SDS011;5708;50.660;6.778;2022-10-04T05:17:25;9.80;;;5.45;;
11305;SDS011;5708;50.660;6.778;2022-10-04T05:19:56;10.50;;;5.63;;
11305;SDS011;5708;50.660;6.778;2022-10-04T05:22:22;13.25;;;5.53;;
11305;SDS011;5708;50.660;6.778;2022-10-04T05:24:53;9.93;;;5.22;;
11305;SDS011;5708;50.660;6.778;2022-10-04T05:30:23;11.70;;;6.00;;
11305;SDS011;5708;50.660;6.778;2022-10-04T05:35:28;14.65;;;6.50;;
11305;SDS011;5708;50.660;6.778;2022-10-04T05:37:56;16.88;;;6.55;;
11305;SDS011;5708;50.660;6.778;2022-10-04T05:46:22;11.40;;;6.25;;
11305;SDS011;5708;50.660;6.778;2022-10-04T05:48:53;32.38;;;17.08;;
11305;SDS011;5708;50.660;6.778;2022-10-04T05:52:02;39.17;;;22.27;;
11305;SDS011;5708;50.660;6.778;2022-10-04T05:54:41;48.17;;;29.73;;
11305;SDS011;5708;50.660;6.778;2022-10-04T06:02:37;42.95;;;24.35;;
11305;SDS011;5708;50.660;6.778;2022-10-04T06:05:11;35.42;;;18.60;;
11305;SDS011;5708;50.660;6.778;2022-10-04T06:24:34;11.50;;;6.68;;
11305;SDS011;5708;50.660;6.778;2022-10-04T06:27:02;17.35;;;6.22;;
11305;SDS011;5708;50.660;6.778;2022-10-04T06:29:31;9.60;;;5.95;;
11305;SDS011;5708;50.660;6.778;2022-10-04T06:37:41;12.60;;;5.85;;
11305;SDS011;5708;50.660;6.778;2022-10-04T06:40:41;10.90;;;5.70;;
11305;SDS011;5708;50.660;6.778;2022-10-04T06:46:15;12.55;;;5.03;;
11305;SDS011;5708;50.660;6.778;2022-10-04T06:49:10;9.98;;;5.43;;
11305;SDS011;5708;50.660;6.778;2022-10-04T06:52:02;14.45;;;5.45;;
11305;SDS011;5708;50.660;6.778;2022-10-04T06:54:52;10.90;;;5.15;;
11305;SDS011;5708;50.660;6.778;2022-10-04T06:57:47;11.40;;;5.40;;
11305;SDS011;5708;50.660;6.778;2022-10-04T07:00:22;11.65;;;5.15;;
11305;SDS011;5708;50.660;6.778;2022-10-04T07:02:56;8.88;;;5.07;;
11305;SDS011;5708;50.660;6.778;2022-10-04T07:10:49;11.33;;;5.43;;
11305;SDS011;5708;50.660;6.778;2022-10-04T07:15:54;14.40;;;5.10;;
11305;SDS011;5708;50.660;6.778;2022-10-04T07:18:33;11.35;;;4.53;;
11305;SDS011;5708;50.660;6.778;2022-10-04T07:27:20;13.68;;;4.40;;
11305;SDS011;5708;50.660;6.778;2022-10-04T07:29:52;11.43;;;4.82;;
11305;SDS011;5708;50.660;6.778;2022-10-04T07:32:20;9.10;;;4.25;;
11305;SDS011;5708;50.660;6.778;2022-10-04T07:34:59;11.45;;;4.57;;
11305;SDS011;5708;50.660;6.778;2022-10-04T07:37:29;8.52;;;4.15;;
11305;SDS011;5708;50.660;6.778;2022-10-04T07:39:58;8.80;;;3.90;;
11305;SDS011;5708;50.660;6.778;2022-10-04T07:45:21;12.38;;;4.70;;
11305;SDS011;5708;50.660;6.778;2022-10-04T07:47:47;9.20;;;4.03;;
11305;SDS011;5708;50.660;6.778;2022-10-04T07:55:59;8.25;;;3.97;;
11305;SDS011;5708;50.660;6.778;2022-10-04T08:03:54;11.02;;;4.25;;
11305;SDS011;5708;50.660;6.778;2022-10-04T08:09:06;10.80;;;4.95;;
11305;SDS011;5708;50.660;6.778;2022-10-04T08:11:53;11.85;;;5.35;;
11305;SDS011;5708;50.660;6.778;2022-10-04T08:14:27;14.48;;;5.60;;
11305;SDS011;5708;50.660;6.778;2022-10-04T08:24:58;11.50;;;5.88;;
11305;SDS011;5708;50.660;6.778;2022-10-04T08:27:28;14.98;;;5.65;;
11305;SDS011;5708;50.660;6.778;2022-10-04T08:31:18;13.57;;;4.82;;
11305;SDS011;5708;50.660;6.778;2022-10-04T08:33:35;11.65;;;4.95;;
11305;SDS011;5708;50.660;6.778;2022-10-04T08:39:01;10.77;;;5.43;;
11305;SDS011;5708;50.660;6.778;2022-10-04T08:44:38;11.25;;;4.13;;
11305;SDS011;5708;50.660;6.778;2022-10-04T08:50:00;7.88;;;3.67;;
11305;SDS011;5708;50.660;6.778;2022-10-04T09:00:49;9.90;;;3.47;;
11305;SDS011;5708;50.660;6.778;2022-10-04T09:12:01;7.15;;;3.42;;
11305;SDS011;5708;50.660;6.778;2022-10-04T09:17:46;10.15;;;3.10;;
11305;SDS011;5708;50.660;6.778;2022-10-04T09:26:18;7.13;;;2.85;;
11305;SDS011;5708;50.660;6.778;2022-10-04T09:31:50;11.13;;;3.63;;
11305;SDS011;5708;50.660;6.778;2022-10-04T09:39:29;9.60;;;3.30;;
11305;SDS011;5708;50.660;6.778;2022-10-04T09:48:04;7.65;;;2.70;;
11305;SDS011;5708;50.660;6.778;2022-10-04T10:04:37;5.22;;;2.50;;
11305;SDS011;5708;50.660;6.778;2022-10-04T10:13:21;8.65;;;3.10;;
11305;SDS011;5708;50.660;6.778;2022-10-04T10:19:07;6.10;;;2.38;;
11305;SDS011;5708;50.660;6.778;2022-10-04T10:21:50;7.75;;;3.10;;
11305;SDS011;5708;50.660;6.778;2022-10-04T10:27:29;8.18;;;3.00;;
11305;SDS011;5708;50.660;6.778;2022-10-04T10:30:16;8.77;;;2.97;;
11305;SDS011;5708;50.660;6.778;2022-10-04T10:36:00;10.32;;;2.60;;
11305;SDS011;5708;50.660;6.778;2022-10-04T10:41:09;5.55;;;2.70;;
11305;SDS011;5708;50.660;6.778;2022-10-04T10:57:42;5.78;;;2.40;;
11305;SDS011;5708;50.660;6.778;2022-10-04T11:02:58;5.88;;;2.50;;
11305;SDS011;5708;50.660;6.778;2022-10-04T11:05:47;9.40;;;2.50;;
11305;SDS011;5708;50.660;6.778;2022-10-04T11:09:00;4.70;;;2.30;;
11305;SDS011;5708;50.660;6.778;2022-10-04T11:15:08;4.82;;;2.33;;
11305;SDS011;5708;50.660;6.778;2022-10-04T11:29:56;4.93;;;2.20;;
11305;SDS011;5708;50.660;6.778;2022-10-04T12:13:40;5.05;;;2.15;;
11305;SDS011;5708;50.660;6.778;2022-10-04T12:16:14;6.10;;;2.50;;
11305;SDS011;5708;50.660;6.778;2022-10-04T12:19:00;5.40;;;2.40;;
11305;SDS011;5708;50.660;6.778;2022-10-04T12:24:40;5.03;;;2.30;;
11305;SDS011;5708;50.660;6.778;2022-10-04T12:30:17;4.32;;;1.70;;
11305;SDS011;5708;50.660;6.778;2022-10-04T12:33:00;2.90;;;1.33;;
11305;SDS011;5708;50.660;6.778;2022-10-04T12:35:38;4.32;;;1.70;;
11305;SDS011;5708;50.660;6.778;2022-10-04T12:38:31;3.53;;;1.60;;
11305;SDS011;5708;50.660;6.778;2022-10-04T12:41:24;3.10;;;1.25;;
11305;SDS011;5708;50.660;6.778;2022-10-04T12:46:54;3.20;;;1.73;;
11305;SDS011;5708;50.660;6.778;2022-10-04T12:52:19;3.05;;;1.50;;
11305;SDS011;5708;50.660;6.778;2022-10-04T12:54:54;3.92;;;1.52;;
11305;SDS011;5708;50.660;6.778;2022-10-04T13:00:18;3.95;;;1.60;;
11305;SDS011;5708;50.660;6.778;2022-10-04T13:02:52;3.55;;;1.40;;
11305;SDS011;5708;50.660;6.778;2022-10-04T13:05:29;3.00;;;1.42;;
11305;SDS011;5708;50.660;6.778;2022-10-04T13:11:17;5.65;;;1.70;;
11305;SDS011;5708;50.660;6.778;2022-10-04T13:16:37;2.28;;;1.30;;
11305;SDS011;5708;50.660;6.778;2022-10-04T13:19:12;3.13;;;1.30;;
11305;SDS011;5708;50.660;6.778;2022-10-04T13:21:49;2.30;;;1.45;;
11305;SDS011;5708;50.660;6.778;2022-10-04T13:27:21;2.22;;;1.30;;
11305;SDS011;5708;50.660;6.778;2022-10-04T13:29:53;5.30;;;1.75;;
11305;SDS011;5708;50.660;6.778;2022-10-04T13:32:40;6.85;;;1.90;;
11305;SDS011;5708;50.660;6.778;2022-10-04T13:38:19;2.83;;;1.73;;
11305;SDS011;5708;50.660;6.778;2022-10-04T13:41:14;5.05;;;1.80;;
11305;SDS011;5708;50.660;6.778;2022-10-04T13:47:12;4.50;;;2.10;;
11305;SDS011;5708;50.660;6.778;2022-10-04T13:49:53;3.95;;;2.00;;
11305;SDS011;5708;50.660;6.778;2022-10-04T14:01:12;5.93;;;1.88;;
11305;SDS011;5708;50.660;6.778;2022-10-04T14:07:04;5.97;;;2.33;;
11305;SDS011;5708;50.660;6.778;2022-10-04T14:12:40;7.40;;;1.90;;
11305;SDS011;5708;50.660;6.778;2022-10-04T14:18:28;8.10;;;2.22;;
11305;SDS011;5708;50.660;6.778;2022-10-04T14:26:46;6.43;;;2.03;;
11305;SDS011;5708;50.660;6.778;2022-10-04T14:32:28;8.57;;;2.30;;
11305;SDS011;5708;50.660;6.778;2022-10-04T14:35:02;4.85;;;1.98;;
11305;SDS011;5708;50.660;6.778;2022-10-04T14:49:15;6.95;;;1.90;;
11305;SDS011;5708;50.660;6.778;2022-10-04T14:51:57;11.00;;;1.80;;
11305;SDS011;5708;50.660;6.778;2022-10-04T14:59:51;3.17;;;1.70;;
11305;SDS011;5708;50.660;6.778;2022-10-04T15:02:22;4.20;;;1.80;;
11305;SDS011;5708;50.660;6.778;2022-10-04T15:10:37;6.07;;;1.87;;
11305;SDS011;5708;50.660;6.778;2022-10-04T15:18:47;4.88;;;1.80;;
11305;SDS011;5708;50.660;6.778;2022-10-04T15:23:57;3.50;;;1.55;;
11305;SDS011;5708;50.660;6.778;2022-10-04T15:29:00;2.92;;;1.67;;
11305;SDS011;5708;50.660;6.778;2022-10-04T15:45:45;2.40;;;1.50;;
11305;SDS011;5708;50.660;6.778;2022-10-04T15:48:48;4.50;;;1.70;;
11305;SDS011;5708;50.660;6.778;2022-10-04T15:54:09;5.38;;;1.80;;
11305;SDS011;5708;50.660;6.778;2022-10-04T16:01:53;5.57;;;1.80;;
11305;SDS011;5708;50.660;6.778;2022-10-04T16:07:31;4.00;;;1.70;;
11305;SDS011;5708;50.660;6.778;2022-10-04T16:10:17;6.93;;;1.92;;
11305;SDS011;5708;50.660;6.778;2022-10-04T16:18:24;2.92;;;1.55;;
11305;SDS011;5708;50.660;6.778;2022-10-04T16:21:17;2.78;;;1.60;;
11305;SDS011;5708;50.660;6.778;2022-10-04T16:24:25;5.65;;;1.50;;
11305;SDS011;5708;50.660;6.778;2022-10-04T16:32:21;4.13;;;1.70;;
11305;SDS011;5708;50.660;6.778;2022-10-04T16:35:01;4.32;;;1.65;;
11305;SDS011;5708;50.660;6.778;2022-10-04T16:37:51;2.25;;;1.50;;
11305;SDS011;5708;50.660;6.778;2022-10-04T16:40:26;3.40;;;1.70;;
11305;SDS011;5708;50.660;6.778;2022-10-04T16:43:04;4.75;;;1.80;;
11305;SDS011;5708;50.660;6.778;2022-10-04T16:57:10;3.65;;;1.70;;
11305;SDS011;5708;50.660;6.778;2022-10-04T17:05:18;2.92;;;1.58;;
11305;SDS011;5708;50.660;6.778;2022-10-04T17:16:36;3.47;;;2.10;;
11305;SDS011;5708;50.660;6.778;2022-10-04T17:24:41;5.38;;;2.83;;
11305;SDS011;5708;50.660;6.778;2022-10-04T17:27:40;5.65;;;2.60;;
11305;SDS011;5708;50.660;6.778;2022-10-04T17:30:16;8.23;;;2.95;;
11305;SDS011;5708;50.660;6.778;2022-10-04T17:41:52;4.85;;;2.80;;
11305;SDS011;5708;50.660;6.778;2022-10-04T17:47:16;7.03;;;2.60;;
11305;SDS011;5708;50.660;6.778;2022-10-04T17:49:58;6.10;;;2.95;;
11305;SDS011;5708;50.660;6.778;2022-10-04T17:52:52;6.55;;;3.05;;
11305;SDS011;5708;50.660;6.778;2022-10-04T17:55:45;7.78;;;3.40;;
11305;SDS011;5708;50.660;6.778;2022-10-04T17:58:14;7.32;;;3.20;;
11305;SDS011;5708;50.660;6.778;2022-10-04T18:06:16;5.35;;;3.10;;
11305;SDS011;5708;50.660;6.778;2022-10-04T18:08:58;6.90;;;3.35;;
11305;SDS011;5708;50.660;6.778;2022-10-04T18:11:29;5.55;;;2.80;;
11305;SDS011;5708;50.660;6.778;2022-10-04T18:14:09;8.85;;;3.10;;
11305;SDS011;5708;50.660;6.778;2022-10-04T18:19:42;5.25;;;2.78;;
11305;SDS011;5708;50.660;6.778;2022-10-04T18:22:18;7.50;;;2.90;;
11305;SDS011;5708;50.660;6.778;2022-10-04T18:24:46;7.85;;;3.47;;
11305;SDS011;5708;50.660;6.778;2022-10-04T18:27:23;6.78;;;3.13;;
11305;SDS011;5708;50.660;6.778;2022-10-04T18:32:38;6.65;;;3.40;;
11305;SDS011;5708;50.660;6.778;2022-10-04T18:35:29;5.90;;;3.28;;
11305;SDS011;5708;50.660;6.778;2022-10-04T18:37:55;6.53;;;3.33;;
11305;SDS011;5708;50.660;6.778;2022-10-04T18:40:23;6.30;;;2.95;;
11305;SDS011;5708;50.660;6.778;2022-10-04T18:47:47;9.40;;;3.58;;
11305;SDS011;5708;50.660;6.778;2022-10-04T18:50:16;7.53;;;3.47;;
11305;SDS011;5708;50.660;6.778;2022-10-04T18:55:29;7.03;;;3.47;;
11305;SDS011;5708;50.660;6.778;2022-10-04T19:04:25;8.18;;;3.90;;
11305;SDS011;5708;50.660;6.778;2022-10-04T19:07:13;9.07;;;3.58;;
11305;SDS011;5708;50.660;6.778;2022-10-04T19:09:45;9.07;;;3.85;;
11305;SDS011;5708;50.660;6.778;2022-10-04T19:12:16;6.45;;;3.65;;
11305;SDS011;5708;50.660;6.778;2022-10-04T19:25:38;13.00;;;4.43;;
11305;SDS011;5708;50.660;6.778;2022-10-04T19:31:02;7.30;;;4.35;;
11305;SDS011;5708;50.660;6.778;2022-10-04T19:33:39;9.77;;;4.22;;
11305;SDS011;5708;50.660;6.778;2022-10-04T19:38:42;8.50;;;4.77;;
11305;SDS011;5708;50.660;6.778;2022-10-04T19:52:13;10.65;;;4.80;;
11305;SDS011;5708;50.660;6.778;2022-10-04T19:54:56;7.80;;;4.00;;
11305;SDS011;5708;50.660;6.778;2022-10-04T19:57:30;9.20;;;4.72;;
11305;SDS011;5708;50.660;6.778;2022-10-04T20:00:00;11.18;;;5.43;;
11305;SDS011;5708;50.660;6.778;2022-10-04T20:02:26;9.02;;;4.75;;
11305;SDS011;5708;50.660;6.778;2022-10-04T20:04:51;8.80;;;4.57;;
11305;SDS011;5708;50.660;6.778;2022-10-04T20:07:18;7.72;;;4.43;;
11305;SDS011;5708;50.660;6.778;2022-10-04T20:10:07;9.13;;;4.60;;
11305;SDS011;5708;50.660;6.778;2022-10-04T20:12:41;12.20;;;5.22;;
11305;SDS011;5708;50.660;6.778;2022-10-04T20:17:52;9.77;;;4.95;;
11305;SDS011;5708;50.660;6.778;2022-10-04T20:23:05;10.68;;;4.72;;
11305;SDS011;5708;50.660;6.778;2022-10-04T20:30:51;11.93;;;6.35;;
11305;SDS011;5708;50.660;6.778;2022-10-04T20:43:53;11.77;;;6.45;;
11305;SDS011;5708;50.660;6.778;2022-10-04T20:46:26;10.52;;;6.70;;
11305;SDS011;5708;50.660;6.778;2022-10-04T20:49:02;10.10;;;6.13;;
11305;SDS011;5708;50.660;6.778;2022-10-04T20:51:38;11.68;;;6.47;;
11305;SDS011;5708;50.660;6.778;2022-10-04T20:54:04;10.15;;;6.30;;
11305;SDS011;5708;50.660;6.778;2022-10-04T20:56:32;8.95;;;5.95;;
11305;SDS011;5708;50.660;6.778;2022-10-04T20:58:58;11.15;;;5.75;;
11305;SDS011;5708;50.660;6.778;2022-10-04T21:01:31;10.10;;;5.43;;
11305;SDS011;5708;50.660;6.778;2022-10-04T21:07:21;11.77;;;5.97;;
11305;SDS011;5708;50.660;6.778;2022-10-04T21:09:48;12.00;;;6.07;;
11305;SDS011;5708;50.660;6.778;2022-10-04T21:12:27;10.32;;;5.78;;
11305;SDS011;5708;50.660;6.778;2022-10-04T21:17:57;11.57;;;5.85;;
11305;SDS011;5708;50.660;6.778;2022-10-04T21:20:46;8.70;;;5.50;;
11305;SDS011;5708;50.660;6.778;2022-10-04T21:23:15;11.27;;;6.05;;
11305;SDS011;5708;50.660;6.778;2022-10-04T21:25:40;9.40;;;6.20;;
11305;SDS011;5708;50.660;6.778;2022-10-04T21:28:22;13.38;;;5.80;;
11305;SDS011;5708;50.660;6.778;2022-10-04T21:30:47;10.02;;;6.20;;
11305;SDS011;5708;50.660;6.778;2022-10-04T21:33:13;8.55;;;5.72;;
11305;SDS011;5708;50.660;6.778;2022-10-04T21:35:38;13.52;;;5.78;;
11305;SDS011;5708;50.660;6.778;2022-10-04T21:38:03;11.75;;;6.05;;
11305;SDS011;5708;50.660;6.778;2022-10-04T21:40:29;12.10;;;6.60;;
11305;SDS011;5708;50.660;6.778;2022-10-04T21:42:54;13.75;;;6.30;;
11305;SDS011;5708;50.660;6.778;2022-10-04T21:45:19;10.13;;;5.80;;
11305;SDS011;5708;50.660;6.778;2022-10-04T21:47:44;11.60;;;6.07;;
11305;SDS011;5708;50.660;6.778;2022-10-04T21:50:10;11.65;;;6.35;;
11305;SDS011;5708;50.660;6.778;2022-10-04T21:52:35;11.45;;;6.32;;
11305;SDS011;5708;50.660;6.778;2022-10-04T21:55:00;11.68;;;6.45;;
11305;SDS011;5708;50.660;6.778;2022-10-04T21:57:26;13.75;;;6.55;;
11305;SDS011;5708;50.660;6.778;2022-10-04T21:59:51;11.77;;;6.07;;
11305;SDS011;5708;50.660;6.778;2022-10-04T22:02:16;13.60;;;6.70;;
11305;SDS011;5708;50.660;6.778;2022-10-04T22:04:42;10.48;;;6.50;;
11305;SDS011;5708;50.660;6.778;2022-10-04T22:07:07;13.45;;;6.28;;
11305;SDS011;5708;50.660;6.778;2022-10-04T22:09:34;12.20;;;6.40;;
11305;SDS011;5708;50.660;6.778;2022-10-04T22:11:59;9.02;;;6.07;;
11305;SDS011;5708;50.660;6.778;2022-10-04T22:14:25;10.63;;;6.45;;
11305;SDS011;5708;50.660;6.778;2022-10-04T22:16:50;9.52;;;5.93;;
11305;SDS011;5708;50.660;6.778;2022-10-04T22:19:15;10.98;;;6.22;;
11305;SDS011;5708;50.660;6.778;2022-10-04T22:21:41;11.15;;;6.15;;
11305;SDS011;5708;50.660;6.778;2022-10-04T22:24:12;10.85;;;6.40;;
11305;SDS011;5708;50.660;6.778;2022-10-04T22:26:40;12.25;;;6.60;;
11305;SDS011;5708;50.660;6.778;2022-10-04T22:29:08;9.80;;;6.68;;
11305;SDS011;5708;50.660;6.778;2022-10-04T22:31:39;13.35;;;7.05;;
11305;SDS011;5708;50.660;6.778;2022-10-04T22:34:07;13.32;;;6.90;;
11305;SDS011;5708;50.660;6.778;2022-10-04T22:36:37;11.80;;;6.53;;
11305;SDS011;5708;50.660;6.778;2022-10-04T22:41:32;17.75;;;8.35;;
11305;SDS011;5708;50.660;6.778;2022-10-04T22:44:01;14.50;;;7.88;;
11305;SDS011;5708;50.660;6.778;2022-10-04T22:46:31;13.25;;;8.27;;
11305;SDS011;5708;50.660;6.778;2022-10-04T22:48:58;14.90;;;8.05;;
11305;SDS011;5708;50.660;6.778;2022-10-04T22:51:26;12.68;;;7.78;;
11305;SDS011;5708;50.660;6.778;2022-10-04T22:53:52;14.07;;;8.13;;
11305;SDS011;5708;50.660;6.778;2022-10-04T22:56:17;20.65;;;9.65;;
11305;SDS011;5708;50.660;6.778;2022-10-04T22:58:43;14.98;;;8.43;;
11305;SDS011;5708;50.660;6.778;2022-10-04T23:01:12;16.27;;;8.88;;
11305;SDS011;5708;50.660;6.778;2022-10-04T23:03:39;15.55;;;8.07;;
11305;SDS011;5708;50.660;6.778;2022-10-04T23:06:04;13.85;;;8.20;;
11305;SDS011;5708;50.660;6.778;2022-10-04T23:08:36;14.52;;;8.38;;
11305;SDS011;5708;50.660;6.778;2022-10-04T23:11:02;15.48;;;8.02;;
11305;SDS011;5708;50.660;6.778;2022-10-04T23:13:27;16.38;;;8.02;;
11305;SDS011;5708;50.660;6.778;2022-10-04T23:15:54;13.82;;;8.70;;
11305;SDS011;5708;50.660;6.778;2022-10-04T23:18:22;12.52;;;7.82;;
11305;SDS011;5708;50.660;6.778;2022-10-04T23:20:47;13.38;;;7.90;;
11305;SDS011;5708;50.660;6.778;2022-10-04T23:23:17;12.30;;;7.93;;
11305;SDS011;5708;50.660;6.778;2022-10-04T23:25:48;15.73;;;7.70;;
11305;SDS011;5708;50.660;6.778;2022-10-04T23:28:15;13.82;;;8.45;;
11305;SDS011;5708;50.660;6.778;2022-10-04T23:30:42;12.88;;;7.68;;
11305;SDS011;5708;50.660;6.778;2022-10-04T23:33:17;14.85;;;9.45;;
11305;SDS011;5708;50.660;6.778;2022-10-04T23:35:44;16.70;;;8.43;;
11305;SDS011;5708;50.660;6.778;2022-10-04T23:38:13;15.82;;;8.57;;
11305;SDS011;5708;50.660;6.778;2022-10-04T23:40:40;13.75;;;7.85;;
11305;SDS011;5708;50.660;6.778;2022-10-04T23:43:07;20.55;;;9.15;;
11305;SDS011;5708;50.660;6.778;2022-10-04T23:45:39;15.07;;;9.02;;
11305;SDS011;5708;50.660;6.778;2022-10-04T23:48:07;19.65;;;9.90;;
11305;SDS011;5708;50.660;6.778;2022-10-04T23:50:34;15.90;;;10.35;;
11305;SDS011;5708;50.660;6.778;2022-10-04T23:53:01;19.42;;;10.82;;
11305;SDS011;5708;50.660;6.778;2022-10-04T23:55:33;15.98;;;9.75;;
11305;SDS011;5708;50.660;6.778;2022-10-04T23:58:00;16.33;;;9.02;;
